Humanes de Madrid, Spain
Current Conditions -  °F | °C
As of 9:00 PM on Monday 22 Dec 2014 (Local Time) from LEGT Reporting Station
Clear Clear  
Wind Chill: 45°   Ceiling: Unl
Heat Index: 45°   Visibility: 6mi
Dew Point: 32°   Wind: 2mph
Humidity: 61%   Direction: 50°NE
Pressure: 30.42"   Gusts: NA
Location:  40.25°N, 3.83°W
Report Text: LEGT 222000Z 05002KT CAVOK 07/M00 Q1030
Loading
Personal Weather Stations






























Interactive Weather Map New forecast layout! Learn more

10-Day Weather Forecast

Advertisements
Track Severe Weather on mobile